Massillon, OH (44646)

10:00 PM EST on February 09, 2016 (GMT -0500)
WD8MBE, Perry Hts, Ohio | | Change Station
CLOSE
Current Station
Personal Weather Station
Location: Massillon, OH
Elevation: 1100 ft
Nearby Weather Stations

Elev 1100 ft 40.80 °N, 81.46 °W | Updated 11 seconds ago

Snow
Snow
25.1 °F
Feels Like 25 °F
N
1.0
Wind Variable Wind from WNW
Gusts 12.0 mph

Today
High -- | Low -- °F
--% Chance of Precip.
Yesterday
High -- | Low -- °F
Precip. -- in
Pressure 29.73 in
Visibility 2.0 miles
Clouds Mostly Cloudy 1200 ft
Overcast 2900 ft
Windchill 25 °F
Dew Point 23 °F
Humidity 91%
Rainfall 0.00 in
Snow Depth Not available.
7:28 AM 5:52 PM
Waxing Crescent, 3% visible
METAR KCAK 100251Z 28015KT 2SM -SN BKN012 OVC029 M04/M06 A2969 RMK AO2 SLP068 P0001 60002 T10391061 51008
Pressure 29.73 in
Visibility 2.0 miles
Clouds Mostly Cloudy 1200 ft
Overcast 2900 ft
Windchill 25 °F
Dew Point 23 °F
Humidity 91%
Rainfall 0.00 in
Snow Depth Not available.
7:28 AM 5:52 PM
Waxing Crescent, 3% visible
METAR KCAK 100251Z 28015KT 2SM -SN BKN012 OVC029 M04/M06 A2969 RMK AO2 SLP068 P0001 60002 T10391061 51008
Winter Storm Nacio, the third winter storm in five days to affect the Northeast, is bringing pockets of locally heavy snow to parts of the Ohio Valley, Appalachians and mid-Atlantic states Tuesday. Winter storm warnings are posted for parts of southern Pennsylvania, southern Ohio and the higher peaks of the Appalachians. Winter weather advisories, generally for lighter snow accumulations, stretch from northeast Alabama and far north Georgia to southern Connecticut and Long Island.

10-Day Weather Forecast

Almanac

Astronomy

Feb. 09, 2016 Rise Set
Actual Time
Civil Twilight
Nautical Twilight
Astronomical Twilight
Moon
Length of Visible Light
Length of Day
Tomorrow will be .
, % of the Moon is Illuminated

Today's Extremes

State Highs State Lows

Community

WunderPhotos

Upload Photos

1,891,786 photos uploaded!

WunderBlog® & News

Nearby

Air Quality

  Air Quality AQ Index Pollutant
Not available.

Snow Depth

Station Depth Elevation

Earthquake Activity

City Distance Mag. Time & Date
Minimum magnitude displayed is 2.5.

Coastal Water Temperatures

Place Temperature

Stations

Nearby Weather Stations

Station Location Temp. Windchill Dew Point Humidity Wind Precip. Elev Updated Type
                   

Watches & Warnings

There are currently no watches in effect.